createdAt,value
2023-03-10T00:01:49.876Z,9.13
2023-03-10T00:04:16.324Z,9.98
2023-03-10T00:06:42.754Z,8.88
2023-03-10T00:09:09.174Z,9.65
2023-03-10T00:11:35.601Z,9.30
2023-03-10T00:14:02.018Z,10.55
2023-03-10T00:16:29.206Z,9.38
2023-03-10T00:18:55.661Z,8.75
2023-03-10T00:21:23.842Z,9.30
2023-03-10T00:23:50.779Z,9.93
2023-03-10T00:26:18.031Z,10.85
2023-03-10T00:28:44.470Z,9.43
2023-03-10T00:31:12.688Z,8.95
2023-03-10T00:33:39.196Z,10.23
2023-03-10T00:36:09.559Z,8.60
2023-03-10T00:38:36.129Z,9.48
2023-03-10T00:41:04.312Z,8.60
2023-03-10T00:43:30.958Z,9.48
2023-03-10T00:45:57.416Z,9.02
2023-03-10T00:48:23.865Z,9.77
2023-03-10T00:50:50.423Z,9.10
2023-03-10T00:53:16.936Z,8.82
2023-03-10T00:55:43.324Z,8.95
2023-03-10T00:58:09.782Z,8.50
2023-03-10T01:00:36.268Z,9.57
2023-03-10T01:03:02.694Z,8.73
2023-03-10T01:05:29.190Z,8.80
2023-03-10T01:07:55.605Z,9.57
2023-03-10T01:10:22.029Z,9.88
2023-03-10T01:12:48.451Z,8.50
2023-03-10T01:15:14.887Z,8.18
2023-03-10T01:17:41.357Z,7.53
2023-03-10T01:20:09.456Z,9.05
2023-03-10T01:22:35.939Z,8.02
2023-03-10T01:25:02.347Z,9.07
2023-03-10T01:27:28.761Z,7.05
2023-03-10T01:29:55.177Z,8.90
2023-03-10T01:32:21.606Z,8.25
2023-03-10T01:34:48.068Z,8.35
2023-03-10T01:37:14.482Z,8.52
2023-03-10T01:39:40.902Z,8.63
2023-03-10T01:42:07.317Z,8.43
2023-03-10T01:44:33.748Z,8.50
2023-03-10T01:47:00.314Z,7.65
2023-03-10T01:49:47.024Z,9.00
2023-03-10T01:52:18.759Z,8.15
2023-03-10T01:55:17.577Z,8.93
2023-03-10T01:57:51.112Z,7.63
2023-03-10T02:00:17.917Z,9.48
2023-03-10T02:03:08.957Z,8.82
2023-03-10T02:05:36.912Z,8.77
2023-03-10T02:08:03.424Z,10.55
2023-03-10T02:10:29.870Z,8.07
2023-03-10T02:12:56.267Z,9.48
2023-03-10T02:15:22.709Z,9.07
2023-03-10T02:17:50.061Z,8.05
2023-03-10T02:20:31.160Z,8.65
2023-03-10T02:22:57.565Z,10.50
2023-03-10T02:25:41.458Z,8.60
2023-03-10T02:28:07.892Z,8.05
2023-03-10T02:30:43.243Z,8.80
2023-03-10T02:33:11.490Z,9.02
2023-03-10T02:35:38.009Z,8.32
2023-03-10T02:38:04.628Z,8.75
2023-03-10T02:40:38.050Z,8.77
2023-03-10T02:43:13.855Z,8.98
2023-03-10T02:45:41.638Z,9.82
2023-03-10T02:48:08.972Z,10.63
2023-03-10T02:50:36.718Z,8.63
2023-03-10T02:53:17.171Z,10.40
2023-03-10T02:55:43.585Z,9.98
2023-03-10T02:58:10.180Z,9.23
2023-03-10T03:00:37.977Z,8.68
2023-03-10T03:03:05.070Z,9.02
2023-03-10T03:05:31.456Z,9.52
2023-03-10T03:07:57.859Z,8.43
2023-03-10T03:10:24.285Z,10.23
2023-03-10T03:12:50.803Z,8.38
2023-03-10T03:15:17.869Z,8.70
2023-03-10T03:17:44.278Z,9.40
2023-03-10T03:20:11.248Z,8.20
2023-03-10T03:22:37.741Z,8.57
2023-03-10T03:25:04.324Z,8.48
2023-03-10T03:27:30.755Z,8.10
2023-03-10T03:29:58.469Z,8.07
2023-03-10T03:32:24.889Z,7.20
2023-03-10T03:34:51.349Z,7.55
2023-03-10T03:37:17.762Z,8.05
2023-03-10T03:39:44.302Z,7.93
2023-03-10T03:42:10.768Z,7.50
2023-03-10T03:44:37.182Z,8.52
2023-03-10T03:47:03.595Z,7.68
2023-03-10T03:49:30.088Z,8.32
2023-03-10T03:51:56.522Z,7.63
2023-03-10T03:54:23.083Z,7.03
2023-03-10T03:56:49.506Z,8.20
2023-03-10T03:59:15.951Z,9.73
2023-03-10T04:01:42.359Z,8.85
2023-03-10T04:04:08.780Z,7.93
2023-03-10T04:06:35.212Z,8.90
2023-03-10T04:09:01.648Z,8.85
2023-03-10T04:11:28.066Z,8.35
2023-03-10T04:13:54.537Z,9.13
2023-03-10T04:16:21.025Z,8.40
2023-03-10T04:18:47.491Z,8.60
2023-03-10T04:21:14.058Z,8.93
2023-03-10T04:23:40.617Z,9.05
2023-03-10T04:26:08.124Z,7.88
2023-03-10T04:28:34.629Z,7.90
2023-03-10T04:31:01.090Z,8.00
2023-03-10T04:33:27.524Z,7.82
2023-03-10T04:35:53.956Z,8.57
2023-03-10T04:38:20.398Z,8.52
2023-03-10T04:40:52.573Z,7.57
2023-03-10T04:43:18.989Z,8.75
2023-03-10T04:45:45.402Z,9.30
2023-03-10T04:48:11.800Z,8.13
2023-03-10T04:50:38.264Z,7.78
2023-03-10T04:53:04.703Z,8.38
2023-03-10T04:55:31.146Z,8.55
2023-03-10T04:57:57.579Z,9.38
2023-03-10T05:00:24.156Z,9.43
2023-03-10T05:02:50.593Z,9.00
2023-03-10T05:05:17.110Z,8.20
2023-03-10T05:07:43.562Z,9.60
2023-03-10T05:10:10.606Z,9.35
2023-03-10T05:12:38.565Z,7.80
2023-03-10T05:15:05.510Z,8.32
2023-03-10T05:17:31.951Z,8.70
2023-03-10T05:19:58.356Z,9.18
2023-03-10T05:22:24.785Z,8.27
2023-03-10T05:24:51.166Z,9.77
2023-03-10T05:27:17.580Z,8.95
2023-03-10T05:29:44.165Z,7.88
2023-03-10T05:32:10.644Z,7.80
2023-03-10T05:34:37.077Z,8.15
2023-03-10T05:37:03.539Z,8.18
2023-03-10T05:39:29.959Z,9.18
2023-03-10T05:41:56.468Z,9.63
2023-03-10T05:44:22.863Z,9.90
2023-03-10T05:46:49.344Z,9.07
2023-03-10T05:49:15.748Z,9.52
2023-03-10T05:51:42.193Z,8.35
2023-03-10T05:54:08.616Z,8.48
2023-03-10T05:56:35.095Z,9.13
2023-03-10T05:59:01.526Z,10.35
2023-03-10T06:01:27.948Z,10.18
2023-03-10T06:03:54.444Z,8.30
2023-03-10T06:06:20.896Z,9.18
2023-03-10T06:08:47.325Z,8.73
2023-03-10T06:11:13.750Z,9.02
2023-03-10T06:13:40.157Z,9.05
2023-03-10T06:16:07.205Z,9.20
2023-03-10T06:18:33.838Z,11.15
2023-03-10T06:21:00.283Z,10.02
2023-03-10T06:23:26.710Z,10.13
2023-03-10T06:26:01.022Z,9.50
2023-03-10T06:28:27.907Z,8.73
2023-03-10T06:30:57.378Z,9.43
2023-03-10T06:33:24.502Z,8.82
2023-03-10T06:35:50.935Z,9.85
2023-03-10T06:38:17.481Z,8.40
2023-03-10T06:40:43.872Z,7.97
2023-03-10T06:43:10.290Z,8.40
2023-03-10T06:45:36.739Z,8.88
2023-03-10T06:48:03.358Z,9.90
2023-03-10T06:50:31.561Z,9.13
2023-03-10T06:52:58.203Z,7.75
2023-03-10T06:55:24.653Z,9.10
2023-03-10T06:57:51.062Z,8.77
2023-03-10T07:00:18.048Z,7.97
2023-03-10T07:02:44.565Z,7.28
2023-03-10T07:05:12.021Z,8.02
2023-03-10T07:07:38.627Z,7.68
2023-03-10T07:10:08.162Z,7.97
2023-03-10T07:12:34.800Z,9.30
2023-03-10T07:15:01.227Z,8.52
2023-03-10T07:17:27.650Z,7.93
2023-03-10T07:19:54.081Z,7.93
2023-03-10T07:22:20.523Z,7.40
2023-03-10T07:24:46.967Z,8.02
2023-03-10T07:27:13.378Z,8.15
2023-03-10T07:29:39.827Z,7.45
2023-03-10T07:32:06.276Z,5.82
2023-03-10T07:34:32.702Z,8.50
2023-03-10T07:36:59.140Z,7.05
2023-03-10T07:39:25.566Z,8.45
2023-03-10T07:41:51.967Z,8.23
2023-03-10T07:44:18.374Z,7.82
2023-03-10T07:46:44.818Z,9.20
2023-03-10T07:49:11.238Z,7.85
2023-03-10T07:51:37.701Z,8.45
2023-03-10T07:54:04.606Z,7.00
2023-03-10T07:56:31.097Z,9.48
2023-03-10T07:58:58.906Z,8.43
2023-03-10T08:01:25.515Z,8.80
2023-03-10T08:03:58.251Z,7.93
2023-03-10T08:06:28.567Z,9.15
2023-03-10T08:08:55.282Z,7.38
2023-03-10T08:11:21.828Z,7.43
2023-03-10T08:13:48.430Z,7.38
2023-03-10T08:16:15.754Z,7.75
2023-03-10T08:18:42.348Z,9.07
2023-03-10T08:21:08.910Z,8.32
2023-03-10T08:23:35.792Z,7.82
2023-03-10T08:26:04.329Z,7.28
2023-03-10T08:28:30.791Z,10.40
2023-03-10T08:31:04.797Z,9.23
2023-03-10T08:33:32.075Z,8.13
2023-03-10T08:36:07.335Z,8.63
2023-03-10T08:38:33.903Z,7.88
2023-03-10T08:41:13.012Z,9.20
2023-03-10T08:43:39.723Z,8.00
2023-03-10T08:46:08.588Z,9.38
2023-03-10T08:48:35.434Z,8.35
2023-03-10T08:51:01.922Z,7.97
2023-03-10T08:53:28.338Z,9.48
2023-03-10T08:55:54.781Z,8.52
2023-03-10T08:58:21.205Z,9.10
2023-03-10T09:00:47.659Z,8.43
2023-03-10T09:03:15.488Z,8.45
2023-03-10T09:05:42.073Z,8.77
2023-03-10T09:08:08.474Z,8.23
2023-03-10T09:10:35.821Z,7.97
2023-03-10T09:13:13.389Z,8.35
2023-03-10T09:15:40.903Z,7.90
2023-03-10T09:18:08.466Z,7.70
2023-03-10T09:20:35.618Z,9.77
2023-03-10T09:23:02.051Z,8.35
2023-03-10T09:25:28.522Z,6.88
2023-03-10T09:27:55.005Z,7.57
2023-03-10T09:30:21.531Z,9.00
2023-03-10T09:32:48.061Z,6.45
2023-03-10T09:35:14.488Z,8.98
2023-03-10T09:37:40.938Z,8.82
2023-03-10T09:40:08.014Z,8.15
2023-03-10T09:42:51.972Z,9.07
2023-03-10T09:45:24.322Z,7.68
2023-03-10T09:48:03.735Z,8.25
2023-03-10T09:50:34.811Z,7.80
2023-03-10T09:53:24.874Z,8.43
2023-03-10T09:55:51.294Z,8.07
2023-03-10T09:58:35.479Z,7.75
2023-03-10T10:01:01.893Z,8.45
2023-03-10T10:03:51.609Z,9.00
2023-03-10T10:06:28.677Z,8.38
2023-03-10T10:09:04.664Z,8.60
2023-03-10T10:11:31.657Z,8.10
2023-03-10T10:14:38.367Z,8.38
2023-03-10T10:17:21.090Z,8.05
2023-03-10T10:19:47.639Z,8.88
2023-03-10T10:22:23.877Z,8.93
2023-03-10T10:25:20.536Z,8.93
2023-03-10T10:27:46.988Z,9.73
2023-03-10T10:30:38.692Z,9.05
2023-03-10T10:33:06.881Z,8.88
2023-03-10T10:35:35.286Z,10.00
2023-03-10T10:38:10.902Z,10.38
2023-03-10T10:41:01.215Z,8.73
2023-03-10T10:43:27.719Z,10.35
2023-03-10T10:46:03.606Z,9.73
2023-03-10T10:51:01.964Z,7.70
2023-03-10T10:53:28.430Z,9.27
2023-03-10T10:56:12.362Z,9.07
2023-03-10T10:58:39.801Z,10.68
2023-03-10T11:01:08.320Z,10.02
2023-03-10T11:03:36.201Z,11.27
2023-03-10T11:06:18.134Z,10.30
2023-03-10T11:08:44.630Z,9.52
2023-03-10T11:11:21.955Z,11.27
2023-03-10T11:13:57.316Z,10.85
2023-03-10T11:16:31.397Z,10.73
2023-03-10T11:19:02.109Z,9.50
2023-03-10T11:21:29.188Z,9.70
2023-03-10T11:24:15.457Z,9.93
2023-03-10T11:27:03.836Z,10.52
2023-03-10T11:29:42.537Z,9.73
2023-03-10T11:32:27.017Z,9.88
2023-03-10T11:34:53.466Z,10.40
2023-03-10T11:37:37.149Z,9.40
2023-03-10T11:40:06.593Z,10.02
2023-03-10T11:42:42.688Z,9.27
2023-03-10T11:45:18.428Z,9.40
2023-03-10T11:47:50.853Z,9.98
2023-03-10T11:50:23.302Z,13.85
2023-03-10T11:52:49.712Z,10.85
2023-03-10T11:55:20.405Z,10.55
2023-03-10T11:57:48.581Z,10.25
2023-03-10T12:00:39.508Z,10.20
2023-03-10T12:03:30.140Z,9.18
2023-03-10T12:05:58.530Z,9.68
2023-03-10T12:08:33.897Z,9.77
2023-03-10T12:11:01.256Z,8.88
2023-03-10T12:13:30.589Z,11.63
2023-03-10T12:15:58.311Z,10.77
2023-03-10T12:18:26.848Z,11.68
2023-03-10T12:21:12.901Z,9.48
2023-03-10T12:23:40.544Z,9.55
2023-03-10T12:26:07.358Z,10.63
2023-03-10T12:28:33.853Z,10.73
2023-03-10T12:31:06.205Z,10.23
2023-03-10T12:33:32.550Z,10.23
2023-03-10T12:36:27.474Z,10.45
2023-03-10T12:39:19.259Z,9.45
2023-03-10T12:41:47.536Z,8.80
2023-03-10T12:44:49.262Z,11.10
2023-03-10T12:47:18.427Z,9.23
2023-03-10T12:50:10.806Z,10.07
2023-03-10T12:52:43.418Z,9.30
2023-03-10T12:55:20.165Z,10.20
2023-03-10T12:57:52.440Z,10.60
2023-03-10T13:00:50.108Z,9.50
2023-03-10T13:03:29.756Z,9.77
2023-03-10T13:05:59.190Z,9.95
2023-03-10T13:08:39.739Z,8.73
2023-03-10T13:11:18.370Z,9.07
2023-03-10T13:13:47.607Z,10.65
2023-03-10T13:16:20.989Z,9.88
2023-03-10T13:18:48.496Z,9.00
2023-03-10T13:21:34.756Z,11.00
2023-03-10T13:24:02.118Z,10.77
2023-03-10T13:26:28.539Z,8.88
2023-03-10T13:29:00.622Z,8.57
2023-03-10T13:31:31.013Z,8.85
2023-03-10T13:33:57.653Z,10.48
2023-03-10T13:36:31.061Z,8.02
2023-03-10T13:39:02.011Z,10.38
2023-03-10T13:41:28.441Z,9.38
2023-03-10T13:43:54.912Z,8.57
2023-03-10T13:46:31.539Z,9.57
2023-03-10T13:49:02.497Z,9.32
2023-03-10T13:51:32.269Z,9.50
2023-03-10T13:59:05.510Z,9.35
2023-03-10T14:01:34.074Z,7.82
2023-03-10T14:04:02.234Z,7.90
2023-03-10T14:06:29.004Z,9.32
2023-03-10T14:08:55.549Z,8.55
2023-03-10T14:11:41.598Z,8.82
2023-03-10T14:14:09.497Z,7.90
2023-03-10T14:16:48.573Z,8.75
2023-03-10T14:19:43.894Z,8.25
2023-03-10T14:22:22.472Z,8.75
2023-03-10T14:24:48.860Z,8.90
2023-03-10T14:27:15.317Z,9.77
2023-03-10T14:29:42.664Z,9.68
2023-03-10T14:32:12.340Z,8.88
2023-03-10T14:34:38.844Z,8.50
2023-03-10T14:37:06.845Z,9.48
2023-03-10T14:39:33.271Z,9.00
2023-03-10T14:42:02.824Z,7.22
2023-03-10T14:44:29.327Z,9.23
2023-03-10T14:46:55.965Z,9.13
2023-03-10T14:49:26.394Z,8.10
2023-03-10T14:51:53.192Z,10.05
2023-03-10T14:54:23.906Z,7.97
2023-03-10T14:56:51.369Z,8.75
2023-03-10T14:59:17.759Z,8.95
2023-03-10T15:01:44.220Z,7.57
2023-03-10T15:04:16.831Z,9.05
2023-03-10T15:06:43.689Z,8.90
2023-03-10T15:09:10.329Z,8.82
2023-03-10T15:11:37.751Z,8.85
2023-03-10T15:14:11.082Z,9.40
2023-03-10T15:16:37.799Z,9.23
2023-03-10T15:19:04.254Z,8.52
2023-03-10T15:21:30.732Z,8.40
2023-03-10T15:23:57.157Z,7.15
2023-03-10T15:26:23.623Z,7.88
2023-03-10T15:28:50.082Z,9.60
2023-03-10T15:31:16.558Z,10.23
2023-03-10T15:33:43.019Z,8.90
2023-03-10T15:36:09.849Z,8.50
2023-03-10T15:38:36.327Z,9.25
2023-03-10T15:41:02.784Z,8.93
2023-03-10T15:43:29.228Z,9.60
2023-03-10T15:45:55.653Z,8.43
2023-03-10T15:48:22.148Z,8.70
2023-03-10T15:50:48.571Z,9.25
2023-03-10T15:53:15.055Z,8.93
2023-03-10T15:55:41.640Z,8.77
2023-03-10T15:58:11.552Z,8.98
2023-03-10T16:00:37.978Z,8.85
2023-03-10T16:03:04.427Z,7.95
2023-03-10T16:05:30.848Z,8.05
2023-03-10T16:07:57.294Z,7.68
2023-03-10T16:10:23.725Z,7.38
2023-03-10T16:12:50.156Z,8.30
2023-03-10T16:15:18.544Z,8.07
2023-03-10T16:17:45.045Z,7.75
2023-03-10T16:20:12.233Z,8.02
2023-03-10T16:22:41.823Z,8.95
2023-03-10T16:25:11.368Z,7.47
2023-03-10T16:27:37.814Z,7.90
2023-03-10T16:30:04.790Z,8.13
2023-03-10T16:32:31.263Z,8.70
2023-03-10T16:34:57.850Z,9.15
2023-03-10T16:37:26.085Z,9.30
2023-03-10T16:39:55.769Z,7.47
2023-03-10T16:42:22.760Z,9.68
2023-03-10T16:44:49.386Z,8.18
2023-03-10T16:47:17.893Z,8.32
2023-03-10T16:49:44.597Z,7.07
2023-03-10T16:52:11.035Z,7.70
2023-03-10T16:54:37.567Z,7.97
2023-03-10T16:57:04.295Z,7.88
2023-03-10T16:59:30.747Z,7.53
2023-03-10T17:01:57.173Z,8.95
2023-03-10T17:04:23.585Z,8.32
2023-03-10T17:06:50.144Z,7.93
2023-03-10T17:09:16.859Z,8.15
2023-03-10T17:11:47.988Z,8.63
2023-03-10T17:14:15.044Z,7.97
2023-03-10T17:16:41.570Z,7.88
2023-03-10T17:19:17.151Z,7.97
2023-03-10T17:21:45.592Z,7.63
2023-03-10T17:24:12.799Z,7.35
2023-03-10T17:26:39.574Z,8.00
2023-03-10T17:29:06.029Z,8.27
2023-03-10T17:31:32.532Z,7.28
2023-03-10T17:34:03.725Z,8.02
2023-03-10T17:36:30.273Z,7.53
2023-03-10T17:38:57.986Z,8.02
2023-03-10T17:41:24.711Z,8.40
2023-03-10T17:43:51.283Z,8.40
2023-03-10T17:46:21.821Z,8.73
2023-03-10T17:48:48.377Z,7.00
2023-03-10T17:51:15.753Z,7.60
2023-03-10T17:53:42.611Z,7.40
2023-03-10T17:56:09.202Z,6.97
2023-03-10T17:58:35.668Z,7.80
2023-03-10T18:01:08.754Z,7.90
2023-03-10T18:03:35.522Z,7.70
2023-03-10T18:06:02.011Z,8.25
2023-03-10T18:08:28.664Z,8.20
2023-03-10T18:11:02.190Z,8.27
2023-03-10T18:13:28.624Z,7.80
2023-03-10T18:15:55.118Z,9.45
2023-03-10T18:18:21.588Z,7.80
2023-03-10T18:20:47.994Z,8.40
2023-03-10T18:23:14.568Z,7.80
2023-03-10T18:25:41.349Z,8.35
2023-03-10T18:28:07.798Z,8.75
2023-03-10T18:30:34.208Z,8.95
2023-03-10T18:33:00.645Z,8.98
2023-03-10T18:35:27.063Z,8.68
2023-03-10T18:37:54.199Z,9.80
2023-03-10T18:40:20.622Z,7.82
2023-03-10T18:42:47.110Z,9.13
2023-03-10T18:45:13.519Z,9.32
2023-03-10T18:47:39.960Z,9.38
2023-03-10T18:50:06.735Z,9.35
2023-03-10T18:52:33.177Z,9.32
2023-03-10T18:54:59.601Z,8.35
2023-03-10T18:57:25.999Z,8.50
2023-03-10T18:59:52.432Z,9.88
2023-03-10T19:02:18.893Z,8.73
2023-03-10T19:04:45.336Z,9.23
2023-03-10T19:07:11.743Z,7.57
2023-03-10T19:09:38.192Z,8.15
2023-03-10T19:12:04.669Z,7.70
2023-03-10T19:14:31.149Z,8.77
2023-03-10T19:16:57.593Z,9.43
2023-03-10T19:19:24.004Z,8.38
2023-03-10T19:21:50.446Z,8.48
2023-03-10T19:24:19.189Z,8.90
2023-03-10T19:26:45.700Z,8.90
2023-03-10T19:29:12.164Z,8.73
2023-03-10T19:31:39.902Z,9.35
2023-03-10T19:34:06.899Z,8.98
2023-03-10T19:36:33.455Z,8.63
2023-03-10T19:39:00.603Z,8.38
2023-03-10T19:41:27.290Z,8.52
2023-03-10T19:43:53.760Z,9.57
2023-03-10T19:46:20.317Z,8.27
2023-03-10T19:48:46.808Z,8.45
2023-03-10T19:51:19.614Z,8.65
2023-03-10T19:53:46.073Z,8.73
2023-03-10T19:56:16.227Z,9.07
2023-03-10T19:58:42.700Z,9.55
2023-03-10T20:01:27.373Z,8.75
2023-03-10T20:03:55.523Z,6.97
2023-03-10T20:06:22.137Z,7.97
2023-03-10T20:08:48.548Z,8.32
2023-03-10T20:11:14.985Z,8.02
2023-03-10T20:13:42.212Z,9.07
2023-03-10T20:16:09.354Z,8.57
2023-03-10T20:18:35.807Z,8.38
2023-03-10T20:21:02.523Z,8.18
2023-03-10T20:23:29.196Z,7.97
2023-03-10T20:26:06.633Z,8.20
2023-03-10T20:28:33.628Z,7.25
2023-03-10T20:31:00.113Z,8.65
2023-03-10T20:33:26.941Z,8.50
2023-03-10T20:35:53.395Z,7.75
2023-03-10T20:38:19.816Z,9.18
2023-03-10T20:40:46.340Z,9.05
2023-03-10T20:43:12.768Z,7.95
2023-03-10T20:45:39.543Z,8.43
2023-03-10T20:48:06.375Z,7.35
2023-03-10T20:50:32.979Z,6.15
2023-03-10T20:52:59.645Z,7.15
2023-03-10T20:55:27.345Z,6.93
2023-03-10T20:57:57.639Z,6.57
2023-03-10T21:00:24.945Z,6.90
2023-03-10T21:02:51.838Z,6.60
2023-03-10T21:05:21.761Z,5.93
2023-03-10T21:07:48.213Z,7.75
2023-03-10T21:10:14.794Z,6.75
2023-03-10T21:12:41.731Z,6.47
2023-03-10T21:15:08.985Z,7.32
2023-03-10T21:17:35.402Z,7.38
2023-03-10T21:20:02.750Z,6.32
2023-03-10T21:22:29.216Z,6.72
2023-03-10T21:24:56.317Z,6.78
2023-03-10T21:27:22.773Z,6.30
2023-03-10T21:29:49.253Z,6.90
2023-03-10T21:32:15.767Z,6.32
2023-03-10T21:34:43.351Z,5.40
2023-03-10T21:37:09.785Z,6.63
2023-03-10T21:39:36.258Z,5.32
2023-03-10T21:42:02.705Z,6.03
2023-03-10T21:44:29.140Z,6.78
2023-03-10T21:46:55.544Z,6.35
2023-03-10T21:49:22.019Z,5.57
2023-03-10T21:51:48.546Z,6.97
2023-03-10T21:54:15.068Z,5.65
2023-03-10T21:56:41.521Z,7.82
2023-03-10T21:59:07.912Z,7.03
2023-03-10T22:01:34.541Z,7.10
2023-03-10T22:04:01.023Z,6.82
2023-03-10T22:06:27.521Z,7.45
2023-03-10T22:08:54.018Z,6.88
2023-03-10T22:11:20.498Z,6.25
2023-03-10T22:13:46.920Z,6.38
2023-03-10T22:16:16.908Z,6.72
2023-03-10T22:21:09.970Z,6.32
2023-03-10T22:23:36.388Z,7.20
2023-03-10T22:26:02.940Z,8.57
2023-03-10T22:28:29.367Z,7.75
2023-03-10T22:30:55.885Z,7.22
2023-03-10T22:33:22.363Z,7.90
2023-03-10T22:35:48.820Z,6.70
2023-03-10T22:38:15.217Z,7.60
2023-03-10T22:40:41.686Z,7.00
2023-03-10T22:43:08.118Z,6.10
2023-03-10T22:45:34.522Z,6.65
2023-03-10T22:48:02.277Z,6.20
2023-03-10T22:50:32.968Z,6.40
2023-03-10T22:53:00.275Z,6.93
2023-03-10T22:55:26.855Z,8.10
2023-03-10T22:57:53.396Z,7.20
2023-03-10T23:00:21.173Z,7.68
2023-03-10T23:02:48.144Z,8.13
2023-03-10T23:05:14.825Z,7.97
2023-03-10T23:07:41.737Z,7.78
2023-03-10T23:10:09.687Z,7.15
2023-03-10T23:12:36.249Z,7.25
2023-03-10T23:15:07.049Z,6.95
2023-03-10T23:17:35.912Z,6.32
2023-03-10T23:20:02.319Z,6.22
2023-03-10T23:22:28.737Z,6.80
2023-03-10T23:24:55.124Z,7.53
2023-03-10T23:27:21.542Z,7.93
2023-03-10T23:29:47.990Z,6.47
2023-03-10T23:32:14.584Z,6.70
2023-03-10T23:34:40.971Z,6.40
2023-03-10T23:37:07.378Z,6.90
2023-03-10T23:39:33.789Z,7.40
2023-03-10T23:42:00.309Z,7.25
2023-03-10T23:44:26.722Z,7.40
2023-03-10T23:46:53.633Z,7.82
2023-03-10T23:49:20.049Z,7.63
2023-03-10T23:51:46.461Z,7.22
2023-03-10T23:54:12.885Z,8.52
2023-03-10T23:56:39.291Z,6.97
2023-03-10T23:59:05.715Z,8.52
